Time;durP1;ratioP1;P1;durP2;ratioP2;P2;SDS_P1;SDS_P2;PMS_P1;PMS_P2;Temp;Humidity;BMP_temperature;BMP_pressure;BME280_temperature;BME280_humidity;BME280_pressure;Samples;Min_cycle;Max_cycle;Signal;HPM_P1;HPM_P2
2024/03/24 00:02:41;;;;;;;6.18;3.13;;;;;;;11.58;100.00;98068.56;4844452;29;20061;-96
2024/03/24 00:05:19;;;;;;;4.75;2.72;;;;;;;12.33;100.00;98188.81;4845843;29;20073;-96
2024/03/24 00:07:51;;;;;;;11.82;3.38;;;;;;;11.74;100.00;98108.75;4803602;29;20043;-96
2024/03/24 00:10:48;;;;;;;4.65;2.22;;;;;;;11.49;100.00;98051.19;4808012;29;20055;-96
2024/03/24 00:13:18;;;;;;;6.43;2.47;;;;;;;12.33;100.00;98187.94;4803886;30;20043;-96
2024/03/24 00:16:12;;;;;;;6.72;2.42;;;;;;;11.54;100.00;98053.66;4790417;30;20071;-96
2024/03/24 00:18:50;;;;;;;7.57;2.97;;;;;;;12.42;100.00;98200.88;4808669;30;20539;-96
2024/03/24 00:21:24;;;;;;;4.85;2.58;;;;;;;12.43;100.00;98205.28;4791756;30;20074;-96
2024/03/24 00:23:50;;;;;;;4.05;2.22;;;;;;;11.84;100.00;98081.66;4790433;30;20047;-96
2024/03/24 00:26:28;;;;;;;7.97;3.03;;;;;;;11.46;100.00;98024.72;4948696;23;20159;-96
2024/03/24 00:28:58;;;;;;;6.25;2.80;;;;;;;11.76;100.00;98062.47;4848611;29;20050;-96
2024/03/24 00:31:42;;;;;;;8.80;2.67;;;;;;;11.66;100.00;98031.84;4847408;29;20080;-96
2024/03/24 00:34:46;;;;;;;6.28;2.80;;;;;;;12.68;100.00;98193.53;4850297;29;20059;-96
2024/03/24 00:37:20;;;;;;;6.20;2.60;;;;;;;12.67;100.00;98181.16;4842277;29;20070;-96
2024/03/24 00:40:01;;;;;;;7.07;2.05;;;;;;;11.83;100.00;98039.09;4829871;29;20054;-96
2024/03/24 01:08:12;;;;;;;9.63;2.90;;;;;;;12.76;100.00;98161.19;1581482;24;20310;-95
2024/03/24 01:19:24;;;;;;;5.35;2.78;;;;;;;12.57;100.00;98148.66;5672091;24;20058;-96
2024/03/24 01:22:06;;;;;;;5.45;2.63;;;;;;;12.74;100.00;98148.75;5452904;24;20811;-96
2024/03/24 01:24:49;;;;;;;3.83;2.10;;;;;;;12.78;100.00;98148.63;5527261;23;21112;-96
2024/03/24 02:35:54;;;;;;;8.10;3.50;;;;;;;12.40;100.00;98069.41;5568235;24;20025;31
2024/03/24 02:44:31;;;;;;;6.45;3.13;;;;;;;12.61;100.00;98066.72;5923865;23;19930;-95
2024/03/24 02:50:58;;;;;;;9.95;3.47;;;;;;;11.78;100.00;97921.25;4812583;30;20118;-96
2024/03/24 02:57:12;;;;;;;6.32;3.38;;;;;;;12.61;100.00;98061.38;5288238;24;20043;-96
2024/03/24 03:00:13;;;;;;;7.00;2.97;;;;;;;12.59;100.00;98049.91;5078388;24;20037;31
2024/03/24 03:21:53;;;;;;;5.00;2.92;;;;;;;11.97;100.00;97951.47;5293312;23;20062;-96
2024/03/24 03:38:50;;;;;;;11.00;2.90;;;;;;;12.38;100.00;98035.78;4990693;24;20337;31
2024/03/24 03:41:43;;;;;;;7.57;3.65;;;;;;;11.30;100.00;97878.97;5160943;23;20059;-96
2024/03/24 03:55:33;;;;;;;6.88;3.70;;;;;;;11.61;100.00;97912.19;5063469;23;20028;-96
2024/03/24 03:58:25;;;;;;;5.30;3.15;;;;;;;12.29;100.00;98050.38;4917314;24;20046;-96
2024/03/24 04:01:01;;;;;;;11.57;3.60;;;;;;;11.43;100.00;97900.59;4995570;24;20062;-96
2024/03/24 04:03:38;;;;;;;7.88;3.17;;;;;;;11.71;100.00;97944.63;4849499;29;20042;-96
2024/03/24 04:06:05;;;;;;;10.52;3.83;;;;;;;11.42;100.00;97895.31;4849655;29;20023;-95
2024/03/24 04:08:37;;;;;;;9.25;3.15;;;;;;;12.24;100.00;98036.41;4849720;29;20050;-95
2024/03/24 04:11:09;;;;;;;11.23;3.83;;;;;;;12.29;100.00;98045.06;4848185;29;20064;-96
2024/03/24 04:13:37;;;;;;;5.43;2.95;;;;;;;12.27;100.00;98033.59;4848290;29;20101;-96
2024/03/24 04:16:27;;;;;;;9.52;3.22;;;;;;;12.23;100.00;98037.34;4847810;29;20026;-96
2024/03/24 04:18:58;;;;;;;7.38;3.40;;;;;;;11.47;100.00;97902.19;4840679;29;20045;-96
2024/03/24 04:21:28;;;;;;;8.95;3.95;;;;;;;11.30;100.00;97902.91;4838701;29;20054;-96
2024/03/24 04:23:59;;;;;;;9.45;3.63;;;;;;;12.23;100.00;98029.34;4843707;29;20050;-96
2024/03/24 04:26:29;;;;;;;10.20;3.40;;;;;;;11.40;100.00;97898.03;4845449;29;20042;-96
2024/03/24 04:28:58;;;;;;;7.95;3.53;;;;;;;11.43;100.00;97900.59;4847384;29;20042;-96
2024/03/24 04:31:30;;;;;;;6.80;3.45;;;;;;;11.52;100.00;97920.63;4846566;29;20043;-96
2024/03/24 04:34:14;;;;;;;9.05;3.35;;;;;;;11.27;100.00;97876.41;4849018;29;20050;-96
2024/03/24 04:36:52;;;;;;;14.90;3.53;;;;;;;11.79;100.00;97953.13;4844859;29;20047;-96
2024/03/24 04:39:32;;;;;;;7.53;3.05;;;;;;;11.42;100.00;97895.31;4845350;29;20046;-96
2024/03/24 04:42:06;;;;;;;11.93;3.90;;;;;;;11.30;100.00;97878.97;4845404;29;20051;-96
2024/03/24 04:44:40;;;;;;;9.68;3.75;;;;;;;12.03;100.00;98039.09;5234313;23;20062;-96
2024/03/24 04:47:11;;;;;;;6.55;4.30;;;;;;;11.14;100.00;97901.84;4831006;29;20030;-96
2024/03/24 04:52:39;;;;;;;;;;;;;;;;;;;;;
2024/03/24 04:55:22;;;;;;;10.23;3.38;;;;;;;11.74;100.00;97972.91;4845846;29;20061;-96
2024/03/24 04:58:06;;;;;;;9.80;3.95;;;;;;;12.17;100.00;98045.63;4832495;29;20114;-96
2024/03/24 05:01:08;;;;;;;7.18;3.67;;;;;;;11.28;100.00;97914.56;4991175;23;20054;-96
2024/03/24 05:32:17;;;;;;;7.85;3.65;;;;;;;11.63;100.00;97990.22;5691509;23;20029;31
2024/03/24 05:35:09;;;;;;;10.93;4.05;;;;;;;11.43;100.00;97942.31;4918123;24;20051;-96
2024/03/24 05:37:41;;;;;;;10.10;3.85;;;;;;;11.43;100.00;97921.88;4827535;29;20059;-95
2024/03/24 05:40:17;;;;;;;7.07;3.13;;;;;;;11.48;100.00;97937.66;4814783;29;20088;-96
2024/03/24 05:51:57;;;;;;;16.55;6.10;;;;;;;12.41;100.00;98067.66;5245444;24;20122;31
2024/03/24 05:55:19;;;;;;;8.70;4.80;;;;;;;11.59;100.00;97930.03;5361246;23;20069;-96
2024/03/24 06:24:26;;;;;;;10.43;3.60;;;;;;;12.35;100.00;98078.59;5278912;24;20052;-96
2024/03/24 06:32:16;;;;;;;6.97;3.15;;;;;;;12.25;100.00;98068.34;5413014;24;20063;-96
2024/03/24 06:40:01;;;;;;;7.40;3.30;;;;;;;12.24;100.00;98039.94;4878746;24;20053;-96
2024/03/24 06:42:31;;;;;;;9.20;3.20;;;;;;;11.46;100.00;97907.56;4865443;29;20069;-96
2024/03/24 06:45:28;;;;;;;9.40;3.85;;;;;;;11.66;100.00;97912.84;4848961;29;20054;-96
2024/03/24 06:48:05;;;;;;;8.98;3.58;;;;;;;11.77;100.00;97917.69;4851466;29;20077;-96
2024/03/24 06:50:41;;;;;;;12.73;3.47;;;;;;;12.39;100.00;97979.72;4850013;29;20045;-96
2024/03/24 07:20:48;;;;;;;16.20;3.22;;;;;;;13.44;100.00;97899.84;4968663;23;20119;-96
2024/03/24 07:28:34;;;;;;;11.90;2.75;;;;;;;13.94;100.00;97941.69;4997796;23;20065;-96
2024/03/24 07:31:08;;;;;;;14.25;2.95;;;;;;;14.45;100.00;97971.88;4841372;29;20041;-96
2024/03/24 07:33:39;;;;;;;12.23;2.58;;;;;;;14.37;100.00;97998.19;4830156;29;20022;-96
2024/03/24 07:36:09;;;;;;;7.40;2.70;;;;;;;13.87;100.00;97871.66;5002179;24;20075;-96
2024/03/24 07:38:44;;;;;;;;;;;;;;;14.83;100.00;97994.78;5068713;24;20022;-96
2024/03/24 07:41:43;;;;;;;8.60;2.25;;;;;;;15.30;100.00;97994.72;5224149;24;19924;31
2024/03/24 07:44:14;;;;;;;8.55;2.40;;;;;;;15.22;100.00;98007.69;4827877;24;20145;-96
2024/03/24 07:46:44;;;;;;;6.82;2.13;;;;;;;15.46;100.00;97992.03;4820976;24;20151;-96
2024/03/24 07:49:13;;;;;;;11.55;2.20;;;;;;;15.71;100.00;98010.19;4802883;29;20050;-96
2024/03/24 07:51:40;;;;;;;8.07;2.85;;;;;;;15.81;100.00;97999.78;4821399;29;20042;-96
2024/03/24 07:54:07;;;;;;;5.20;2.22;;;;;;;15.47;100.00;97901.78;4821624;29;20047;-95
2024/03/24 07:59:10;;;;;;;9.55;2.50;;;;;;;16.25;100.00;97993.50;4977618;24;20088;-95
2024/03/24 08:04:19;;;;;;;9.30;2.20;;;;;;;15.11;100.00;97865.53;5181585;24;20054;-96
2024/03/24 08:12:16;;;;;;;9.15;2.22;;;;;;;15.44;100.00;97880.50;4839278;29;20061;-95
2024/03/24 08:17:54;;;;;;;7.68;2.10;;;;;;;16.10;100.00;97989.09;4821623;29;20054;-96
2024/03/24 08:20:22;;;;;;;7.78;2.33;;;;;;;15.67;100.00;97873.75;5184723;24;20070;-96
2024/03/24 08:23:16;;;;;;;4.75;1.52;;;;;;;15.60;100.00;97855.38;4859139;29;20054;-96
2024/03/24 08:36:52;;;;;;;9.23;1.70;;;;;;;16.63;74.61;97842.56;5632433;23;21161;-96
2024/03/24 08:43:05;;;;;;;5.22;2.10;;;;;;;17.18;55.82;97942.78;4898799;24;20053;-96
2024/03/24 08:45:35;;;;;;;11.68;2.03;;;;;;;17.18;57.75;97958.91;4822842;29;20051;-94
2024/03/24 08:48:23;;;;;;;6.05;1.75;;;;;;;16.66;54.15;97826.28;4823812;29;20104;-96
2024/03/24 08:50:59;;;;;;;10.13;1.90;;;;;;;17.02;55.67;97836.38;4823661;29;20074;-96
2024/03/24 08:53:31;;;;;;;9.13;1.48;;;;;;;17.01;55.15;97920.59;4881760;24;20033;-95
2024/03/24 08:55:58;;;;;;;7.13;2.08;;;;;;;17.71;54.35;97940.94;4819903;29;20081;-96
2024/03/24 08:58:25;;;;;;;10.65;1.98;;;;;;;17.49;54.34;97900.38;4834514;29;20041;-96
2024/03/24 09:00:52;;;;;;;3.40;1.60;;;;;;;17.65;51.33;97874.13;4838357;29;20117;-96
2024/03/24 09:03:22;;;;;;;6.28;1.60;;;;;;;17.80;46.49;97830.06;4821638;29;20050;-96
2024/03/24 09:06:01;;;;;;;3.63;1.00;;;;;;;18.68;45.24;97956.47;4821923;29;20054;-95
2024/03/24 09:11:58;;;;;;;10.18;2.10;;;;;;;17.51;42.57;97855.44;4755276;30;20082;-95
2024/03/24 09:14:25;;;;;;;4.80;1.30;;;;;;;17.83;42.57;97880.97;4761756;30;20068;-96
2024/03/24 09:16:51;;;;;;;6.03;1.35;;;;;;;18.63;42.43;97937.13;4755654;30;20034;-95
2024/03/24 09:19:17;;;;;;;6.13;1.58;;;;;;;18.07;48.61;97963.59;4752843;30;20047;-94
2024/03/24 09:21:43;;;;;;;6.60;1.73;;;;;;;16.66;52.16;97970.38;4752460;30;20097;-93
2024/03/24 09:24:14;;;;;;;9.20;1.48;;;;;;;16.59;52.53;97930.50;4772418;30;20040;-96
2024/03/24 09:30:08;;;;;;;8.57;1.40;;;;;;;15.57;55.14;97839.50;4758941;30;20067;-96
2024/03/24 09:32:35;;;;;;;6.70;1.85;;;;;;;15.87;54.30;97961.84;4755114;30;20108;-96
2024/03/24 09:35:01;;;;;;;9.18;1.83;;;;;;;15.88;53.38;97869.75;4934499;24;20058;-96
2024/03/24 09:37:28;;;;;;;5.65;1.70;;;;;;;16.68;52.14;97949.66;5015804;24;20101;-96
2024/03/24 09:40:36;;;;;;;4.63;1.45;;;;;;;17.23;52.15;97943.34;4823052;29;20038;-96
2024/03/24 09:46:06;;;;;;;8.20;1.70;;;;;;;16.06;48.36;97834.69;5364231;23;20091;-96
2024/03/24 09:52:53;;;;;;;;;;;;;;;17.14;47.46;97931.38;4828417;29;20058;-95
2024/03/24 09:55:21;;;;;;;3.83;1.23;;;;;;;16.93;47.69;97924.75;4811618;29;19939;-95
2024/03/24 09:57:47;;;;;;;7.53;1.85;;;;;;;16.75;48.43;97843.59;4811446;30;20051;-96
2024/03/24 10:00:29;;;;;;;9.75;2.13;;;;;;;16.98;49.52;97805.31;4804412;30;20150;-96
2024/03/24 10:02:56;;;;;;;4.85;1.75;;;;;;;16.62;48.41;97814.88;4811769;29;20315;-96
2024/03/24 10:05:24;;;;;;;4.75;1.15;;;;;;;16.69;47.28;97862.78;4812633;29;20043;-96
2024/03/24 10:07:52;;;;;;;4.25;1.73;;;;;;;17.41;48.03;97934.03;4803394;29;20567;-96
2024/03/24 10:10:18;;;;;;;5.00;1.13;;;;;;;17.41;48.75;97920.59;4813544;29;20085;-96
2024/03/24 10:13:00;;;;;;;5.68;1.45;;;;;;;16.47;46.68;97783.69;4807561;29;20043;-96
2024/03/24 10:15:30;;;;;;;7.97;1.75;;;;;;;16.27;49.29;97787.69;4809017;29;20055;-96
2024/03/24 10:18:04;;;;;;;5.93;1.40;;;;;;;16.21;47.83;97801.50;4829065;29;20043;-96
2024/03/24 10:20:30;;;;;;;5.93;1.20;;;;;;;16.76;50.06;97847.97;4804036;29;20054;-96
2024/03/24 10:22:59;;;;;;;7.30;1.40;;;;;;;17.22;47.19;97852.97;4812574;29;20072;-96
2024/03/24 10:26:10;;;;;;;7.38;1.35;;;;;;;17.78;47.56;97899.22;4806090;29;20047;-96
2024/03/24 10:28:39;;;;;;;3.92;1.27;;;;;;;17.15;46.71;97804.13;4812316;29;20100;-96
2024/03/24 10:31:09;;;;;;;8.23;1.40;;;;;;;17.63;47.24;97886.81;4807593;29;20054;-96
2024/03/24 10:33:48;;;;;;;4.22;1.33;;;;;;;17.38;47.84;97882.31;4817700;29;20047;-96
2024/03/24 10:36:15;;;;;;;6.88;2.20;;;;;;;17.33;46.84;97874.56;4813799;29;20138;-95
2024/03/24 10:38:49;;;;;;;5.63;1.95;;;;;;;17.26;45.42;97827.56;4816246;29;20058;-96
2024/03/24 10:41:26;;;;;;;4.15;1.02;;;;;;;17.48;48.17;97831.47;4820884;29;20037;-96
2024/03/24 10:43:59;;;;;;;3.30;1.23;;;;;;;16.62;46.67;97746.91;4864210;24;20059;-96
2024/03/24 10:46:30;;;;;;;5.22;1.17;;;;;;;17.13;46.36;97881.31;4814060;29;20051;-96
2024/03/24 10:49:00;;;;;;;9.57;1.65;;;;;;;16.97;46.09;97762.44;4806309;29;20111;-96
2024/03/24 10:51:48;;;;;;;4.28;1.50;;;;;;;17.08;46.31;97793.94;4830752;29;20492;-95
2024/03/24 10:54:21;;;;;;;2.67;0.85;;;;;;;16.81;47.00;97787.69;4825149;29;20050;-96
2024/03/24 10:56:52;;;;;;;9.30;1.30;;;;;;;17.20;47.23;97868.31;4808978;29;20081;-95
2024/03/24 10:59:35;;;;;;;3.20;1.08;;;;;;;17.06;47.91;97868.41;4818572;29;20050;-96
2024/03/24 11:02:20;;;;;;;8.30;1.58;;;;;;;16.25;48.45;97735.13;4865106;24;20118;-96
2024/03/24 11:04:51;;;;;;;7.70;1.42;;;;;;;17.34;47.95;97856.63;4809949;29;20039;-96
2024/03/24 11:07:19;;;;;;;5.95;1.52;;;;;;;16.80;48.89;97862.94;4807507;29;20059;-96
2024/03/24 11:09:53;;;;;;;4.97;1.58;;;;;;;16.54;49.47;97835.13;4802123;29;20175;-94
2024/03/24 11:12:20;;;;;;;5.13;1.70;;;;;;;16.91;50.40;97846.13;4803786;29;20054;-96
2024/03/24 11:14:58;;;;;;;6.15;1.23;;;;;;;16.74;49.35;97836.47;4804941;29;20050;-95
2024/03/24 11:17:27;;;;;;;9.52;1.48;;;;;;;16.75;48.62;97776.47;4802934;29;20053;-95
2024/03/24 11:19:53;;;;;;;;;;;;;;;17.27;48.17;97815.88;4795847;29;20054;-96
2024/03/24 11:22:33;;;;;;;5.20;1.20;;;;;;;17.14;47.35;97759.44;4787300;30;19925;-96
2024/03/24 11:25:08;;;;;;;6.10;1.27;;;;;;;17.29;49.23;97783.53;4797342;29;20051;-96
2024/03/24 11:27:41;;;;;;;7.25;1.15;;;;;;;16.58;47.87;97687.19;4809665;29;20027;-96
2024/03/24 11:30:17;;;;;;;3.67;1.00;;;;;;;17.26;47.42;97757.72;4798379;29;20080;-96
2024/03/24 11:32:51;;;;;;;9.25;1.40;;;;;;;17.85;46.93;97829.75;4802827;29;20073;-96
2024/03/24 11:35:31;;;;;;;5.90;1.80;;;;;;;17.92;48.71;97777.22;4805237;29;20061;-96
2024/03/24 11:38:12;;;;;;;7.15;1.83;;;;;;;17.90;47.37;97764.88;4803882;29;20099;-95
2024/03/24 11:40:49;;;;;;;7.40;1.02;;;;;;;17.54;45.10;97761.13;4804382;29;20106;-96
2024/03/24 11:43:18;;;;;;;5.72;1.42;;;;;;;17.07;46.15;97747.44;4805875;29;20099;-95
2024/03/24 11:46:23;;;;;;;4.93;0.90;;;;;;;17.62;45.65;97815.22;4808507;29;20524;-96
2024/03/24 11:49:45;;;;;;;5.90;1.10;;;;;;;16.61;45.64;97676.28;4805261;29;20084;-96
2024/03/24 11:52:16;;;;;;;10.15;1.40;;;;;;;17.43;46.89;97797.69;4804715;29;20044;-95
2024/03/24 11:54:44;;;;;;;6.30;1.55;;;;;;;17.81;46.09;97798.66;4820501;29;20070;-96
2024/03/24 11:57:13;;;;;;;6.70;1.15;;;;;;;17.04;47.00;97676.00;4805492;29;20045;-96
2024/03/24 11:59:39;;;;;;;4.00;1.25;;;;;;;17.18;47.74;97675.00;4809119;29;20057;-96
2024/03/24 12:02:05;;;;;;;8.82;1.00;;;;;;;16.92;46.81;97646.44;4806595;29;20059;-95
2024/03/24 12:04:32;;;;;;;4.53;1.45;;;;;;;17.66;46.72;97793.38;4805031;29;20074;-96
2024/03/24 12:07:00;;;;;;;9.80;1.77;;;;;;;17.81;44.73;97751.09;4803681;29;20055;-95
2024/03/24 12:09:28;;;;;;;8.18;1.77;;;;;;;17.59;46.70;97657.69;4811838;29;20047;-96
2024/03/24 12:11:55;;;;;;;5.50;1.25;;;;;;;17.08;46.03;97660.50;4797689;29;20398;-96
2024/03/24 12:14:23;;;;;;;6.13;1.48;;;;;;;17.92;46.42;97769.16;4808938;29;20051;-96
2024/03/24 12:17:03;;;;;;;8.32;1.48;;;;;;;17.34;44.83;97649.69;4813472;29;20082;-95
2024/03/24 12:19:30;;;;;;;5.35;1.63;;;;;;;18.13;46.06;97753.28;4816093;29;20053;-96
2024/03/24 12:21:59;;;;;;;6.68;1.75;;;;;;;17.75;46.71;97756.91;4807465;29;20047;-96
2024/03/24 12:24:27;;;;;;;7.22;1.45;;;;;;;17.04;47.76;97630.31;4799689;30;20054;-96
2024/03/24 12:26:53;;;;;;;3.85;1.30;;;;;;;17.84;47.11;97737.44;4796139;29;20047;-95
2024/03/24 12:29:20;;;;;;;3.47;1.48;;;;;;;16.96;45.39;97600.47;4795182;30;20047;-96
2024/03/24 12:31:55;;;;;;;4.78;0.90;;;;;;;16.84;46.96;97636.25;4795805;30;20047;-96
2024/03/24 12:34:22;;;;;;;8.38;1.60;;;;;;;17.43;46.61;97698.25;4804824;29;20077;-95
2024/03/24 12:36:48;;;;;;;6.82;1.40;;;;;;;17.23;47.92;97640.59;4811464;29;20043;-96
2024/03/24 12:39:28;;;;;;;9.75;1.30;;;;;;;16.71;46.93;97609.38;4812935;29;20051;-96
2024/03/24 12:41:54;;;;;;;4.38;1.20;;;;;;;17.64;47.16;97719.19;4793206;30;20039;-94
2024/03/24 12:44:25;;;;;;;6.40;1.20;;;;;;;17.53;47.99;97708.38;4796392;29;20047;-96
2024/03/24 12:47:09;;;;;;;4.68;1.15;;;;;;;17.02;44.63;97690.47;4804746;29;20134;-96
2024/03/24 12:49:36;;;;;;;2.38;0.82;;;;;;;16.35;44.28;97602.06;4798674;30;20048;-96
2024/03/24 12:52:06;;;;;;;5.95;0.82;;;;;;;17.30;45.34;97716.22;4799801;30;20047;-94
2024/03/24 12:54:35;;;;;;;4.32;1.27;;;;;;;16.67;45.22;97634.69;4799199;30;20027;-95
2024/03/24 12:57:07;;;;;;;6.82;1.17;;;;;;;16.50;43.86;97622.44;4816941;29;20051;-95
2024/03/24 12:59:33;;;;;;;3.88;0.90;;;;;;;17.08;43.83;97697.25;4801555;30;20060;-95
2024/03/24 13:02:32;;;;;;;6.72;1.40;;;;;;;16.63;44.36;97576.84;4803957;29;20062;-96
2024/03/24 13:05:09;;;;;;;6.60;1.52;;;;;;;16.59;44.66;97576.22;4809427;29;20055;-96
2024/03/24 13:07:36;;;;;;;3.83;1.42;;;;;;;16.44;45.27;97566.56;4807461;30;20512;-96
2024/03/24 13:10:08;;;;;;;8.52;0.95;;;;;;;16.35;44.23;97559.13;4821978;29;20043;-95
2024/03/24 13:12:34;;;;;;;4.63;1.45;;;;;;;17.39;44.74;97688.72;4808210;30;20039;-96
2024/03/24 13:15:07;;;;;;;4.38;1.63;;;;;;;17.62;45.22;97678.13;4826971;29;20131;-96
2024/03/24 13:17:38;;;;;;;5.70;1.40;;;;;;;16.93;44.52;97555.03;4816254;29;20060;-96
2024/03/24 13:23:34;;;;;;;6.80;1.23;;;;;;;17.88;43.77;97672.69;5321221;23;20877;31
2024/03/24 13:29:05;;;;;;;2.70;1.25;;;;;;;16.81;43.55;97562.16;4968469;23;20077;-95
2024/03/24 13:31:32;;;;;;;5.68;1.45;;;;;;;17.24;44.16;97663.81;4836540;29;20050;-95
2024/03/24 13:34:00;;;;;;;9.20;1.50;;;;;;;17.39;44.68;97661.84;4839473;29;20046;-95
2024/03/24 13:39:49;;;;;;;7.28;1.70;;;;;;;16.58;44.31;97542.28;4899301;23;20153;-96
2024/03/24 13:42:28;;;;;;;4.20;0.90;;;;;;;16.51;44.54;97532.94;4818848;29;20059;-94
2024/03/24 13:45:12;;;;;;;6.53;1.38;;;;;;;16.88;44.73;97570.63;4797003;30;20047;-95
2024/03/24 13:47:39;;;;;;;6.45;1.40;;;;;;;16.40;43.90;97532.84;4806511;30;20031;-96
2024/03/24 13:50:15;;;;;;;3.88;0.80;;;;;;;16.76;43.99;97563.41;4821072;29;20035;-96
2024/03/24 13:52:45;;;;;;;5.55;1.23;;;;;;;17.37;44.64;97636.03;4817357;29;20047;-96
2024/03/24 13:55:35;;;;;;;7.30;1.63;;;;;;;16.96;44.01;97592.41;4815700;29;20070;-96
2024/03/24 13:58:15;;;;;;;14.63;1.55;;;;;;;16.67;43.12;97511.22;4795876;29;20112;-96
2024/03/24 14:00:59;;;;;;;6.25;1.20;;;;;;;17.12;42.73;97632.44;4794322;29;20086;-96
2024/03/24 14:03:25;;;;;;;6.07;1.02;;;;;;;16.73;42.67;97524.22;4804711;29;20054;-95
2024/03/24 14:05:52;;;;;;;5.07;1.42;;;;;;;17.32;42.46;97625.63;4801066;29;20070;-96
2024/03/24 14:08:26;;;;;;;5.85;1.05;;;;;;;17.40;42.21;97623.25;4805764;29;20099;-96
2024/03/24 14:10:52;;;;;;;3.15;0.80;;;;;;;16.58;42.79;97504.69;4816864;29;20118;-96
2024/03/24 14:13:31;;;;;;;3.42;1.30;;;;;;;17.49;42.71;97621.72;4814625;29;20047;-96
2024/03/24 14:16:11;;;;;;;5.03;1.10;;;;;;;16.97;42.78;97537.72;4806508;29;20057;-94
2024/03/24 14:18:46;;;;;;;6.82;1.00;;;;;;;17.81;42.76;97616.63;4812576;29;20067;-95
2024/03/24 14:21:17;;;;;;;6.38;0.88;;;;;;;17.50;43.17;97534.75;4799707;29;20051;-96
2024/03/24 14:23:55;;;;;;;4.35;0.90;;;;;;;17.34;40.12;97485.78;4807622;29;20492;-96
2024/03/24 14:26:22;;;;;;;3.25;0.82;;;;;;;18.02;38.43;97607.94;4809114;29;20074;-95
2024/03/24 14:28:48;;;;;;;4.38;0.82;;;;;;;18.15;39.92;97594.41;4805198;29;20101;-96
2024/03/24 14:31:23;;;;;;;4.15;0.80;;;;;;;17.22;37.38;97495.66;4809170;29;20050;-95
2024/03/24 14:33:53;;;;;;;5.20;0.95;;;;;;;16.94;38.04;97489.63;4803825;29;20039;-96
2024/03/24 14:36:39;;;;;;;4.72;0.90;;;;;;;16.76;38.80;97458.69;4816293;29;20047;-96
2024/03/24 14:39:27;;;;;;;2.80;0.73;;;;;;;17.58;41.84;97590.59;4808017;29;20046;-96
2024/03/24 14:41:59;;;;;;;4.65;0.73;;;;;;;16.83;42.49;97457.34;4812314;29;20032;-96
2024/03/24 14:44:49;;;;;;;7.63;1.30;;;;;;;17.14;39.74;97560.66;4791975;30;20052;-96
2024/03/24 14:47:32;;;;;;;3.08;0.93;;;;;;;17.16;39.55;97563.25;4803080;29;20051;-94
2024/03/24 14:49:59;;;;;;;3.70;0.75;;;;;;;16.82;39.88;97472.56;4803238;29;20043;-96
2024/03/24 14:52:34;;;;;;;4.75;0.90;;;;;;;16.66;37.39;97468.41;4811522;29;20048;-95
2024/03/24 14:55:19;;;;;;;2.33;0.55;;;;;;;16.55;38.30;97445.88;4806103;29;20047;-95
2024/03/24 14:57:49;;;;;;;3.95;0.77;;;;;;;17.02;38.27;97465.75;4780319;30;20048;-96
2024/03/24 15:00:29;;;;;;;1.45;1.00;;;;;;;16.94;37.64;97452.03;4800027;30;20054;-95
2024/03/24 15:02:59;;;;;;;4.38;1.17;;;;;;;17.67;39.16;97587.22;4798150;29;20044;-95
2024/03/24 15:05:42;;;;;;;2.72;0.93;;;;;;;17.44;42.03;97576.38;4815258;29;20047;-95
2024/03/24 15:11:23;;;;;;;3.15;1.20;;;;;;;16.66;41.86;97450.47;4840236;29;20046;-96
2024/03/24 15:16:24;;;;;;;4.22;1.65;;;;;;;17.32;40.54;97550.38;5313673;23;21054;-96
2024/03/24 15:30:02;;;;;;;3.80;0.80;;;;;;;16.36;40.46;97467.81;4871612;23;20058;-95
2024/03/24 15:33:09;;;;;;;2.60;0.90;;;;;;;16.22;40.14;97465.25;4875003;24;20033;-94
2024/03/24 15:35:57;;;;;;;2.63;0.70;;;;;;;17.00;40.01;97587.66;4861446;29;20029;-94
2024/03/24 15:40:58;;;;;;;4.28;0.95;;;;;;;16.53;41.41;97527.47;4988386;24;20034;-95
2024/03/24 15:46:44;;;;;;;4.00;0.98;;;;;;;16.18;43.07;97461.09;5029959;23;20054;-95
2024/03/24 15:49:30;;;;;;;3.97;1.10;;;;;;;16.81;42.13;97593.50;4872759;23;20051;-96
2024/03/24 15:54:49;;;;;;;4.70;1.15;;;;;;;16.03;43.02;97473.75;4800612;29;20066;-94
2024/03/24 15:57:24;;;;;;;3.65;0.90;;;;;;;16.34;42.25;97534.13;4807102;30;20031;-94
2024/03/24 15:59:58;;;;;;;5.10;1.15;;;;;;;16.53;43.24;97598.09;4832302;29;20055;-95
2024/03/24 16:02:36;;;;;;;5.45;0.77;;;;;;;16.52;43.87;97595.53;4797109;30;20047;-95
2024/03/24 16:05:09;;;;;;;5.53;0.93;;;;;;;15.75;43.55;97483.69;4794440;30;20047;-96
2024/03/24 16:07:41;;;;;;;6.50;1.33;;;;;;;15.48;44.94;97482.84;4796372;30;20060;-95
2024/03/24 16:10:36;;;;;;;5.05;0.77;;;;;;;15.66;44.45;97467.34;4800212;29;20134;-96
2024/03/24 16:13:09;;;;;;;3.80;0.93;;;;;;;16.19;44.98;97572.75;5022716;24;20157;-96
2024/03/24 16:15:40;;;;;;;5.95;1.02;;;;;;;16.06;45.19;97599.56;4957660;24;21412;-95
2024/03/24 16:18:09;;;;;;;7.38;1.00;;;;;;;15.56;46.75;97524.25;5413851;24;20043;-96
2024/03/24 16:21:15;;;;;;;7.40;1.45;;;;;;;14.78;47.18;97476.72;4945245;24;20119;-95
2024/03/24 16:26:19;;;;;;;4.45;1.33;;;;;;;14.71;51.38;97635.09;4977715;23;20057;-95
2024/03/24 16:28:49;;;;;;;2.00;1.00;;;;;;;14.65;51.65;97630.13;5141559;23;20124;31
2024/03/24 16:31:21;;;;;;;2.83;0.70;;;;;;;13.61;52.61;97508.94;5395859;24;20061;-96
2024/03/24 16:34:24;;;;;;;6.18;1.20;;;;;;;13.23;53.89;97515.56;4856653;23;20050;-96
2024/03/24 16:53:09;;;;;;;2.67;0.80;;;;;;;12.56;58.27;97688.25;5257016;23;20067;-96
2024/03/24 16:58:28;;;;;;;1.33;0.65;;;;;;;12.43;59.19;97688.00;5356741;24;20029;-96
2024/03/24 17:01:10;;;;;;;4.18;1.17;;;;;;;11.54;59.80;97547.78;4970496;24;20058;-96
2024/03/24 17:03:45;;;;;;;1.52;0.90;;;;;;;11.22;61.16;97548.47;4838727;29;20058;-96
2024/03/24 17:06:11;;;;;;;1.52;0.80;;;;;;;11.31;61.79;97582.59;4845842;29;20056;-96
2024/03/24 17:08:40;;;;;;;3.95;1.08;;;;;;;11.79;63.52;97693.88;4837120;29;20574;-96
2024/03/24 17:11:06;;;;;;;3.53;1.33;;;;;;;11.57;64.29;97704.72;4822453;29;20058;-96
2024/03/24 17:13:33;;;;;;;3.50;1.25;;;;;;;10.99;63.18;97564.66;4827046;29;20091;-96
2024/03/24 17:15:59;;;;;;;2.97;1.10;;;;;;;10.94;64.52;97602.13;4838943;29;20050;-95
2024/03/24 17:18:25;;;;;;;3.72;1.75;;;;;;;11.57;65.09;97715.38;4849916;29;20074;-95
2024/03/24 17:20:54;;;;;;;1.75;0.93;;;;;;;10.64;65.61;97597.31;4830909;29;20076;-96
2024/03/24 17:23:20;;;;;;;2.13;1.25;;;;;;;10.28;65.94;97536.06;4834531;29;20069;-96
2024/03/24 17:25:50;;;;;;;3.15;1.23;;;;;;;10.98;66.76;97678.19;4823307;29;20046;-96
2024/03/24 17:28:16;;;;;;;2.25;1.10;;;;;;;10.26;66.90;97545.91;4829429;29;20507;-96
2024/03/24 17:30:42;;;;;;;3.03;0.90;;;;;;;11.18;67.07;97714.50;4835643;29;20046;-96
2024/03/24 17:33:09;;;;;;;1.70;0.88;;;;;;;11.21;67.36;97722.38;4826876;29;20046;-96
2024/03/24 17:35:39;;;;;;;4.63;0.95;;;;;;;10.52;67.13;97602.31;4840950;29;20061;-96
2024/03/24 17:38:06;;;;;;;2.42;0.98;;;;;;;10.51;68.17;97629.84;4832515;29;20057;-96
2024/03/24 17:40:33;;;;;;;2.95;0.93;;;;;;;11.20;68.01;97720.63;4831600;29;20060;-96
2024/03/24 17:43:02;;;;;;;2.80;0.90;;;;;;;11.26;67.25;97731.00;4829994;29;20078;-96
2024/03/24 17:45:28;;;;;;;1.67;0.52;;;;;;;10.80;67.03;97640.03;4826881;29;20487;-96
2024/03/24 17:47:54;;;;;;;2.42;0.85;;;;;;;10.55;66.60;97594.22;4830679;29;20052;-96
2024/03/24 17:50:21;;;;;;;2.05;0.73;;;;;;;11.31;67.31;97736.09;4827765;29;20136;-96
2024/03/24 17:52:55;;;;;;;1.60;0.63;;;;;;;11.29;67.07;97735.31;4842119;29;20025;-96
2024/03/24 17:55:22;;;;;;;2.03;0.90;;;;;;;11.40;67.42;97745.44;4840036;29;20038;-95
2024/03/24 17:57:56;;;;;;;2.15;0.80;;;;;;;10.55;67.52;97624.31;4837225;29;20053;-96
2024/03/24 18:00:48;;;;;;;2.22;0.93;;;;;;;11.42;67.19;97759.56;4836404;29;20053;-95
2024/03/24 18:03:22;;;;;;;1.83;0.98;;;;;;;11.47;67.68;97768.19;5205486;23;20055;-95
2024/03/24 18:05:49;;;;;;;3.75;0.98;;;;;;;10.44;68.10;97627.47;4844557;29;20067;-95
2024/03/24 18:22:07;;;;;;;1.83;0.98;;;;;;;11.65;67.41;97798.44;5163819;27;20387;-96
2024/03/24 18:24:54;;;;;;;3.88;0.80;;;;;;;10.57;69.02;97675.63;5132376;23;20109;-96
2024/03/24 18:29:56;;;;;;;2.55;1.10;;;;;;;11.41;68.59;97785.31;5029878;28;20085;-96
2024/03/24 18:32:28;;;;;;;3.88;1.02;;;;;;;10.66;68.80;97653.06;4994968;28;20049;-96
2024/03/24 18:41:50;;;;;;;1.52;0.75;;;;;;;11.42;68.69;97786.19;4983384;23;20474;-96